createdAt,value
2022-09-05T00:00:14.580Z,94373.13
2022-09-05T00:02:58.422Z,94370.34
2022-09-05T00:06:00.157Z,94360.63
2022-09-05T00:09:07.626Z,94375.97
2022-09-05T00:11:44.036Z,94338.88
2022-09-05T00:14:34.325Z,94368.31
2022-09-05T00:17:21.775Z,94371.53
2022-09-05T00:24:22.302Z,94378.63
2022-09-05T00:24:32.905Z,94377.00
2022-09-05T00:26:24.430Z,94372.78
2022-09-05T00:29:04.110Z,94371.94
2022-09-05T00:32:15.409Z,94370.16
2022-09-05T00:34:54.236Z,94380.03
2022-09-05T00:37:32.496Z,94373.78
2022-09-05T00:40:18.576Z,94388.09
2022-09-05T00:42:49.529Z,94358.63
2022-09-05T00:45:37.203Z,94379.22
2022-09-05T00:48:37.636Z,94382.03
2022-09-05T00:51:29.285Z,94384.88
2022-09-05T00:54:40.646Z,94400.22
2022-09-05T00:57:18.627Z,94384.47
2022-09-05T00:59:59.590Z,94388.50
2022-09-05T01:02:51.653Z,94382.84
2022-09-05T01:05:54.635Z,94384.88
2022-09-05T01:08:42.183Z,94381.66
2022-09-05T01:11:32.488Z,94384.06
2022-09-05T01:14:14.110Z,94369.53
2022-09-05T01:16:55.619Z,94371.16
2022-09-05T01:19:46.887Z,94386.91
2022-09-05T01:22:53.383Z,94386.91
2022-09-05T01:25:55.202Z,94384.47
2022-09-05T01:29:16.984Z,94372.56
2022-09-05T01:31:21.137Z,94378.00
2022-09-05T01:33:59.751Z,94380.41
2022-09-05T01:36:58.067Z,94382.03
2022-09-05T01:40:12.243Z,94386.88
2022-09-05T01:42:55.962Z,94375.13
2022-09-05T01:45:44.185Z,94388.25
2022-09-05T01:48:31.236Z,94391.72
2022-09-05T01:51:29.001Z,94385.81
2022-09-05T01:54:36.811Z,94377.13
2022-09-05T01:57:11.275Z,94372.69
2022-09-05T01:59:48.487Z,94377.09
2022-09-05T02:02:34.436Z,94380.91
2022-09-05T02:05:48.954Z,94380.34
2022-09-05T02:08:15.924Z,94380.38
2022-09-05T02:11:08.713Z,94381.16
2022-09-05T02:13:35.070Z,94395.34
2022-09-05T02:16:22.960Z,94387.28
2022-09-05T02:19:12.381Z,94382.44
2022-09-05T02:21:57.928Z,94367.09
2022-09-05T02:24:27.313Z,94394.16
2022-09-05T02:28:05.662Z,94388.50
2022-09-05T02:30:30.946Z,94382.47
2022-09-05T02:33:03.422Z,94381.44
2022-09-05T02:36:01.836Z,94370.34
2022-09-05T02:45:01.360Z,94327.16
2022-09-05T02:45:10.843Z,94359.25
2022-09-05T02:45:27.555Z,94358.38
2022-09-05T02:48:00.323Z,94347.31
2022-09-05T02:55:22.293Z,94355.41
2022-09-05T02:57:34.886Z,94350.56
2022-09-05T02:57:42.128Z,94355.41
2022-09-05T03:00:13.273Z,94349.34
2022-09-05T03:02:50.465Z,94319.81
2022-09-05T03:05:32.244Z,94363.88
2022-09-05T03:08:45.787Z,94367.50
2022-09-05T03:11:50.385Z,94362.59
2022-09-05T03:14:41.695Z,94355.91
2022-09-05T03:17:26.499Z,94362.13
2022-09-05T03:20:14.686Z,94360.09
2022-09-05T03:23:18.846Z,94358.31
2022-09-05T03:26:23.540Z,94333.63
2022-09-05T03:29:11.861Z,94355.63
2022-09-05T03:31:49.154Z,94347.53
2022-09-05T03:34:52.656Z,94346.53
2022-09-05T03:37:54.314Z,94351.19
2022-09-05T03:40:39.120Z,94320.91
2022-09-05T03:43:29.807Z,94349.34
2022-09-05T03:46:24.469Z,94345.88
2022-09-05T03:53:55.023Z,94353.69
2022-09-05T03:57:14.938Z,94358.34
2022-09-05T03:57:19.055Z,94356.47
2022-09-05T03:59:12.914Z,94351.91
2022-09-05T04:05:54.606Z,94352.53
2022-09-05T04:08:09.531Z,94339.38
2022-09-05T04:08:40.852Z,94338.09
2022-09-05T04:11:37.681Z,94352.22
2022-09-05T04:14:13.183Z,94351.81
2022-09-05T04:16:53.522Z,94361.09
2022-09-05T04:19:43.851Z,94346.16
2022-09-05T04:22:22.813Z,94362.28
2022-09-05T04:25:10.786Z,94350.63
2022-09-05T04:27:57.922Z,94323.91
2022-09-05T04:30:46.301Z,94358.25
2022-09-05T04:33:33.442Z,94353.78
2022-09-05T04:36:21.726Z,94357.38
2022-09-05T04:39:09.098Z,94321.06
2022-09-05T04:41:52.205Z,94316.19
2022-09-05T04:44:26.979Z,94352.16
2022-09-05T04:47:03.053Z,94336.41
2022-09-05T04:49:37.893Z,94328.38
2022-09-05T04:52:31.580Z,94365.56
2022-09-05T04:55:05.688Z,94340.09
2022-09-05T04:57:45.833Z,94361.16
2022-09-05T05:06:01.686Z,94376.84
2022-09-05T05:06:02.137Z,94372.88
2022-09-05T05:07:07.579Z,94346.59
2022-09-05T05:09:44.921Z,94379.69
2022-09-05T05:18:00.830Z,94373.25
2022-09-05T05:18:09.409Z,94359.94
2022-09-05T05:18:37.748Z,94387.00
2022-09-05T05:21:19.411Z,94359.38
2022-09-05T05:24:07.025Z,94360.44
2022-09-05T05:26:57.104Z,94393.19
2022-09-05T05:29:48.831Z,94399.28
2022-09-05T05:32:35.942Z,94410.94
2022-09-05T05:35:22.936Z,94397.03
2022-09-05T05:38:01.395Z,94403.53
2022-09-05T05:40:31.638Z,94407.84
2022-09-05T05:43:27.759Z,94393.66
2022-09-05T05:46:00.325Z,94419.56
2022-09-05T05:48:57.144Z,94388.84
2022-09-05T05:52:01.227Z,94412.72
2022-09-05T05:55:07.360Z,94418.38
2022-09-05T05:58:01.290Z,94414.75
2022-09-05T06:00:41.182Z,94388.91
2022-09-05T06:03:45.119Z,94419.59
2022-09-05T06:06:49.819Z,94410.69
2022-09-05T06:14:49.205Z,94417.16
2022-09-05T06:14:55.118Z,94416.91
2022-09-05T06:16:32.331Z,94417.09
2022-09-05T06:19:16.656Z,94404.94
2022-09-05T06:22:24.536Z,94418.66
2022-09-05T06:25:16.922Z,94430.38
2022-09-05T06:28:22.799Z,94439.19
2022-09-05T06:31:35.126Z,94434.31
2022-09-05T06:34:35.801Z,94432.22
2022-09-05T06:37:24.850Z,94441.47
2022-09-05T06:39:57.193Z,94442.63
2022-09-05T06:43:03.709Z,94440.13
2022-09-05T06:45:58.555Z,94442.09
2022-09-05T06:49:32.311Z,94447.25
2022-09-05T06:52:29.593Z,94443.34
2022-09-05T06:55:36.342Z,94445.28
2022-09-05T06:58:05.795Z,94447.03
2022-09-05T07:00:50.067Z,94453.06
2022-09-05T07:03:52.110Z,94451.75
2022-09-05T07:07:06.474Z,94448.34
2022-09-05T07:10:16.774Z,94443.81
2022-09-05T07:12:56.814Z,94437.75
2022-09-05T07:15:44.996Z,94445.00
2022-09-05T07:18:45.336Z,94442.63
2022-09-05T07:21:37.890Z,94443.81
2022-09-05T07:24:10.487Z,94441.03
2022-09-05T07:26:53.907Z,94430.56
2022-09-05T07:29:32.077Z,94421.69
2022-09-05T07:32:01.754Z,94424.63
2022-09-05T07:34:33.569Z,94428.00
2022-09-05T07:37:15.944Z,94420.59
2022-09-05T07:39:58.364Z,94435.16
2022-09-05T07:43:09.938Z,94442.56
2022-09-05T07:45:55.848Z,94444.53
2022-09-05T07:48:34.454Z,94456.34
2022-09-05T07:56:50.997Z,94426.97
2022-09-05T07:56:55.662Z,94452.13
2022-09-05T07:59:52.602Z,94442.34
2022-09-05T08:02:19.249Z,94431.44
2022-09-05T08:04:45.718Z,94442.22
2022-09-05T08:07:48.972Z,94431.19
2022-09-05T08:10:20.800Z,94444.88
2022-09-05T08:13:24.068Z,94427.63
2022-09-05T08:16:13.245Z,94443.59
2022-09-05T08:19:29.464Z,94438.97
2022-09-05T08:21:59.608Z,94433.31
2022-09-05T08:24:42.428Z,94421.84
2022-09-05T08:27:37.540Z,94440.31
2022-09-05T08:30:26.823Z,94437.63
2022-09-05T08:33:10.961Z,94442.97
2022-09-05T08:35:47.599Z,94451.19
2022-09-05T08:38:15.525Z,94437.41
2022-09-05T08:40:52.650Z,94423.75
2022-09-05T08:46:38.098Z,94448.03
2022-09-05T08:46:49.792Z,94432.00
2022-09-05T08:49:50.868Z,94416.88
2022-09-05T08:52:33.979Z,94421.06
2022-09-05T08:55:38.619Z,94440.13
2022-09-05T08:58:28.112Z,94391.16
2022-09-05T09:01:33.233Z,94425.97
2022-09-05T09:05:01.182Z,94429.81
2022-09-05T09:07:54.931Z,94425.88
2022-09-05T09:10:50.726Z,94428.72
2022-09-05T09:13:30.755Z,94425.78
2022-09-05T09:16:06.647Z,94420.06
2022-09-05T09:18:51.615Z,94417.13
2022-09-05T09:21:25.404Z,94400.78
2022-09-05T09:24:18.486Z,94393.13
2022-09-05T09:26:56.748Z,94410.59
2022-09-05T09:29:25.580Z,94418.31
2022-09-05T09:32:15.437Z,94415.63
2022-09-05T09:35:07.508Z,94411.38
2022-09-05T09:38:17.642Z,94386.97
2022-09-05T09:41:00.499Z,94409.19
2022-09-05T09:43:52.588Z,94416.78
2022-09-05T09:46:39.091Z,94386.44
2022-09-05T09:49:24.355Z,94407.84
2022-09-05T09:52:20.674Z,94406.00
2022-09-05T09:55:23.420Z,94413.63
2022-09-05T09:58:11.894Z,94411.03
2022-09-05T10:01:36.290Z,94404.97
2022-09-05T10:10:00.907Z,94393.84
2022-09-05T10:10:44.354Z,94390.94
2022-09-05T10:11:22.713Z,94389.88
2022-09-05T10:13:50.673Z,94372.78
2022-09-05T10:16:53.355Z,94394.94
2022-09-05T10:20:10.532Z,94393.34
2022-09-05T10:23:25.364Z,94395.66
2022-09-05T10:26:27.758Z,94362.97
2022-09-05T10:29:34.052Z,94390.16
2022-09-05T10:34:49.044Z,94364.56
2022-09-05T10:35:13.965Z,94385.22
2022-09-05T10:37:44.313Z,94378.69
2022-09-05T10:40:17.947Z,94353.63
2022-09-05T10:43:00.705Z,94376.03
2022-09-05T10:45:38.231Z,94383.06
2022-09-05T10:48:58.278Z,94377.09
2022-09-05T10:51:43.436Z,94376.06
2022-09-05T10:54:47.450Z,94360.97
2022-09-05T10:57:15.040Z,94365.22
2022-09-05T11:02:18.763Z,94364.22
2022-09-05T11:02:58.355Z,94363.00
2022-09-05T11:05:38.123Z,94344.13
2022-09-05T11:08:24.002Z,94361.84
2022-09-05T11:11:35.050Z,94353.72
2022-09-05T11:14:27.441Z,94354.56
2022-09-05T11:17:02.539Z,94328.50
2022-09-05T11:19:43.389Z,94331.75
2022-09-05T11:22:23.532Z,94331.84
2022-09-05T11:25:03.524Z,94344.47
2022-09-05T11:27:35.919Z,94347.66
2022-09-05T11:30:13.131Z,94351.25
2022-09-05T11:39:23.976Z,94346.06
2022-09-05T11:40:02.931Z,94347.44
2022-09-05T11:40:10.955Z,94331.44
2022-09-05T11:42:26.582Z,94338.88
2022-09-05T11:45:11.298Z,94341.84
2022-09-05T11:47:46.856Z,94342.25
2022-09-05T11:50:44.904Z,94330.88
2022-09-05T11:53:51.283Z,94348.13
2022-09-05T11:56:32.739Z,94332.50
2022-09-05T11:59:33.445Z,94335.69
2022-09-05T12:02:32.669Z,94354.59
2022-09-05T12:05:48.523Z,94342.16
2022-09-05T12:08:39.708Z,94334.56
2022-09-05T12:11:24.857Z,94340.19
2022-09-05T12:14:21.468Z,94343.84
2022-09-05T12:17:10.114Z,94344.41
2022-09-05T12:20:17.041Z,94331.75
2022-09-05T12:23:03.838Z,94342.75
2022-09-05T12:27:41.466Z,94338.47
2022-09-05T12:29:34.816Z,94321.53
2022-09-05T12:33:50.804Z,94324.06
2022-09-05T12:36:04.871Z,94338.66
2022-09-05T12:40:55.502Z,94339.94
2022-09-05T12:41:42.814Z,94261.78
2022-09-05T12:44:47.769Z,94316.28
2022-09-05T12:47:20.564Z,94308.31
2022-09-05T12:50:19.373Z,94292.34
2022-09-05T12:53:12.532Z,94320.09
2022-09-05T12:56:49.987Z,94320.53
2022-09-05T13:02:57.794Z,94318.88
2022-09-05T13:03:13.346Z,94299.91
2022-09-05T13:05:17.328Z,94289.63
2022-09-05T13:07:49.275Z,94290.09
2022-09-05T13:14:38.426Z,94291.94
2022-09-05T13:14:58.328Z,94272.56
2022-09-05T13:16:15.505Z,94288.25
2022-09-05T13:18:55.139Z,94311.25
2022-09-05T13:21:29.934Z,94303.44
2022-09-05T13:24:22.092Z,94316.31
2022-09-05T13:27:05.614Z,94302.25
2022-09-05T13:32:03.917Z,94276.31
2022-09-05T13:38:17.738Z,94296.13
2022-09-05T13:38:20.017Z,94294.53
2022-09-05T13:38:56.130Z,94278.81
2022-09-05T13:41:48.848Z,94294.97
2022-09-05T13:44:26.415Z,94290.06
2022-09-05T13:47:49.669Z,94293.47
2022-09-05T13:50:22.368Z,94294.66
2022-09-05T13:53:20.799Z,94287.47
2022-09-05T13:55:53.947Z,94273.78
2022-09-05T13:58:57.019Z,94248.56
2022-09-05T14:02:24.476Z,94254.44
2022-09-05T14:05:19.559Z,94275.06
2022-09-05T14:08:17.932Z,94263.03
2022-09-05T14:11:26.449Z,94262.19
2022-09-05T14:20:28.448Z,94238.31
2022-09-05T14:23:17.653Z,94246.41
2022-09-05T14:25:53.605Z,94224.50
2022-09-05T14:28:46.471Z,94216.38
2022-09-05T14:33:16.732Z,94246.41
2022-09-05T14:37:51.224Z,94245.38
2022-09-05T14:38:13.646Z,94225.53
2022-09-05T14:41:19.840Z,94254.38
2022-09-05T14:43:59.476Z,94256.69
2022-09-05T14:46:45.410Z,94253.44
2022-09-05T14:49:52.440Z,94250.75
2022-09-05T14:52:23.982Z,94247.97
2022-09-05T15:02:40.792Z,94215.59
2022-09-05T15:02:53.350Z,94241.19
2022-09-05T15:06:33.512Z,94182.06
2022-09-05T15:12:15.621Z,94212.09
2022-09-05T15:12:21.806Z,94211.34
2022-09-05T15:14:56.233Z,94201.88
2022-09-05T15:17:30.589Z,94209.59
2022-09-05T15:20:08.411Z,94213.19
2022-09-05T15:22:41.647Z,94217.97
2022-09-05T15:25:21.521Z,94226.13
2022-09-05T15:27:50.697Z,94228.22
2022-09-05T15:30:25.578Z,94221.28
2022-09-05T15:33:12.582Z,94222.47
2022-09-05T15:35:43.456Z,94179.00
2022-09-05T15:38:25.827Z,94225.50
2022-09-05T15:41:29.892Z,94223.16
2022-09-05T15:44:12.054Z,94209.16
2022-09-05T15:46:49.620Z,94218.13
2022-09-05T15:49:27.079Z,94217.41
2022-09-05T15:52:00.125Z,94221.09
2022-09-05T15:54:38.827Z,94211.91
2022-09-05T15:57:17.827Z,94193.81
2022-09-05T15:59:58.272Z,94192.94
2022-09-05T16:02:28.202Z,94201.50
2022-09-05T16:10:28.350Z,94217.53
2022-09-05T16:10:40.811Z,94215.69
2022-09-05T16:11:54.082Z,94209.13
2022-09-05T16:14:36.566Z,94207.13
2022-09-05T16:23:14.567Z,94209.13
2022-09-05T16:23:15.702Z,94180.88
2022-09-05T16:23:40.618Z,94210.72
2022-09-05T16:26:24.929Z,94207.44
2022-09-05T16:29:02.034Z,94180.22
2022-09-05T16:31:59.289Z,94200.41
2022-09-05T16:34:50.083Z,94199.50
2022-09-05T16:37:39.731Z,94203.88
2022-09-05T16:40:34.320Z,94163.69
2022-09-05T16:43:08.698Z,94182.19
2022-09-05T16:45:57.194Z,94189.88
2022-09-05T16:48:56.726Z,94187.16
2022-09-05T16:51:36.266Z,94183.53
2022-09-05T16:54:26.236Z,94180.94
2022-09-05T16:56:58.815Z,94165.31
2022-09-05T16:59:34.858Z,94180.22
2022-09-05T17:02:25.784Z,94154.88
2022-09-05T17:05:21.071Z,94186.59
2022-09-05T17:08:06.341Z,94179.56
2022-09-05T17:10:42.496Z,94157.44
2022-09-05T17:13:16.557Z,94174.22
2022-09-05T17:15:52.322Z,94148.88
2022-09-05T17:18:25.920Z,94163.44
2022-09-05T17:20:59.018Z,94178.97
2022-09-05T17:29:23.618Z,94149.38
2022-09-05T17:29:33.327Z,94159.50
2022-09-05T17:32:49.576Z,94186.19
2022-09-05T17:35:42.170Z,94192.22
2022-09-05T17:38:29.708Z,94153.44
2022-09-05T17:41:35.134Z,94185.94
2022-09-05T17:44:17.972Z,94183.03
2022-09-05T17:46:58.137Z,94186.69
2022-09-05T17:49:45.419Z,94184.47
2022-09-05T17:52:16.611Z,94191.72
2022-09-05T17:54:49.654Z,94174.78
2022-09-05T17:57:29.013Z,94196.19
2022-09-05T17:59:59.126Z,94195.31
2022-09-05T18:02:56.378Z,94183.00
2022-09-05T18:05:54.626Z,94192.88
2022-09-05T18:08:46.095Z,94195.94
2022-09-05T18:11:25.197Z,94191.06
2022-09-05T18:14:25.110Z,94190.47
2022-09-05T18:17:35.841Z,94159.72
2022-09-05T18:19:57.907Z,94207.41
2022-09-05T18:22:28.544Z,94200.88
2022-09-05T18:25:28.807Z,94199.59
2022-09-05T18:28:17.589Z,94188.81
2022-09-05T18:30:45.310Z,94179.44
2022-09-05T18:33:54.987Z,94193.38
2022-09-05T18:36:19.589Z,94216.31
2022-09-05T18:39:14.180Z,94180.91
2022-09-05T18:41:42.866Z,94198.06
2022-09-05T18:44:14.057Z,94194.91
2022-09-05T18:46:49.748Z,94220.97
2022-09-05T18:49:53.284Z,94232.81
2022-09-05T18:52:47.596Z,94231.22
2022-09-05T18:55:30.100Z,94227.63
2022-09-05T18:58:25.734Z,94184.56
2022-09-05T19:00:55.433Z,94206.84
2022-09-05T19:03:30.340Z,94212.81
2022-09-05T19:06:36.226Z,94243.69
2022-09-05T19:09:10.513Z,94230.31
2022-09-05T19:12:33.259Z,94237.91
2022-09-05T19:15:08.521Z,94211.94
2022-09-05T19:17:55.226Z,94194.19
2022-09-05T19:21:12.119Z,94233.78
2022-09-05T19:24:02.380Z,94208.84
2022-09-05T19:26:37.452Z,94223.66
2022-09-05T19:36:52.443Z,94238.94
2022-09-05T19:36:55.711Z,94233.50
2022-09-05T19:37:22.452Z,94202.88
2022-09-05T19:37:54.419Z,94195.19
2022-09-05T19:47:29.480Z,94218.03
2022-09-05T19:47:39.633Z,94223.56
2022-09-05T19:47:45.336Z,94221.97
2022-09-05T19:49:07.607Z,94187.03
2022-09-05T19:51:34.950Z,94164.66
2022-09-05T19:54:04.340Z,94196.09
2022-09-05T19:56:39.677Z,94215.19
2022-09-05T19:59:19.661Z,94202.69
2022-09-05T20:01:49.118Z,94205.81
2022-09-05T20:04:18.934Z,94149.13
2022-09-05T20:06:48.158Z,94185.16
2022-09-05T20:09:17.349Z,94203.06
2022-09-05T20:11:57.905Z,94207.88
2022-09-05T20:14:31.232Z,94214.78
2022-09-05T20:17:32.169Z,94205.91
2022-09-05T20:20:05.222Z,94208.00
2022-09-05T20:22:49.210Z,94185.56
2022-09-05T20:25:43.614Z,94181.53
2022-09-05T20:28:21.707Z,94186.22
2022-09-05T20:30:52.166Z,94173.81
2022-09-05T20:33:23.338Z,94204.38
2022-09-05T20:39:12.693Z,94180.25
2022-09-05T20:43:18.922Z,94170.53
2022-09-05T20:43:24.925Z,94163.94
2022-09-05T20:44:37.785Z,94187.53
2022-09-05T20:53:12.426Z,94178.06
2022-09-05T20:54:15.414Z,94178.50
2022-09-05T20:54:16.435Z,94200.91
2022-09-05T20:55:42.511Z,94201.94
2022-09-05T20:58:20.430Z,94201.66
2022-09-05T21:01:20.942Z,94189.81
2022-09-05T21:03:53.989Z,94205.31
2022-09-05T21:06:25.486Z,94201.78
2022-09-05T21:08:55.740Z,94170.34
2022-09-05T21:11:31.109Z,94158.78
2022-09-05T21:14:02.343Z,94179.41
2022-09-05T21:16:31.923Z,94207.22
2022-09-05T21:18:58.489Z,94171.66
2022-09-05T21:21:33.577Z,94174.03
2022-09-05T21:24:18.232Z,94185.56
2022-09-05T21:26:47.191Z,94184.41
2022-09-05T21:29:16.455Z,94207.38
2022-09-05T21:32:10.594Z,94206.19
2022-09-05T21:34:51.987Z,94187.31
2022-09-05T21:37:20.065Z,94181.78
2022-09-05T21:39:59.679Z,94179.47
2022-09-05T21:45:33.786Z,94196.38
2022-09-05T21:47:39.710Z,94210.13
2022-09-05T21:48:22.537Z,94215.22
2022-09-05T21:50:51.298Z,94214.34
2022-09-05T21:57:39.035Z,94184.06
2022-09-05T21:59:27.858Z,94214.34
2022-09-05T22:02:07.146Z,94190.63
2022-09-05T22:04:37.136Z,94209.81
2022-09-05T22:07:15.654Z,94216.28
2022-09-05T22:09:42.140Z,94189.50
2022-09-05T22:12:29.822Z,94135.94
2022-09-05T22:14:55.643Z,94194.91
2022-09-05T22:17:24.626Z,94164.63
2022-09-05T22:19:51.172Z,94189.63
2022-09-05T22:22:18.783Z,94194.16
2022-09-05T22:24:58.172Z,94193.56
2022-09-05T22:27:27.134Z,94185.38
2022-09-05T22:30:03.127Z,94156.41
2022-09-05T22:32:34.806Z,94157.19
2022-09-05T22:35:26.810Z,94194.59
2022-09-05T22:38:00.184Z,94173.97
2022-09-05T22:40:28.857Z,94172.34
2022-09-05T22:42:56.769Z,94177.50
2022-09-05T22:45:23.287Z,94138.63
2022-09-05T22:47:49.693Z,94170.00
2022-09-05T22:50:16.262Z,94166.53
2022-09-05T22:52:42.686Z,94139.91
2022-09-05T22:55:09.576Z,94132.88
2022-09-05T22:57:38.579Z,94178.81
2022-09-05T23:00:06.345Z,94175.13
2022-09-05T23:02:35.045Z,94154.34
2022-09-05T23:05:05.877Z,94128.19
2022-09-05T23:07:32.921Z,94154.22
2022-09-05T23:09:59.517Z,94130.97
2022-09-05T23:12:26.522Z,94139.88
2022-09-05T23:14:52.966Z,94143.53
2022-09-05T23:17:19.448Z,94135.44
2022-09-05T23:19:45.858Z,94133.88
2022-09-05T23:22:12.266Z,94142.63
2022-09-05T23:24:38.668Z,94135.47
2022-09-05T23:27:05.103Z,94158.69
2022-09-05T23:29:31.511Z,94150.59
2022-09-05T23:31:57.923Z,94148.44
2022-09-05T23:34:25.537Z,94146.75
2022-09-05T23:36:51.987Z,94158.66
2022-09-05T23:39:18.394Z,94154.63
2022-09-05T23:41:45.085Z,94139.28
2022-09-05T23:44:18.674Z,94130.41
2022-09-05T23:46:45.119Z,94140.47
2022-09-05T23:49:11.530Z,94140.97
2022-09-05T23:51:37.938Z,94104.22
2022-09-05T23:54:04.454Z,94139.75
2022-09-05T23:56:30.863Z,94127.56
2022-09-05T23:58:57.253Z,94131.28
